Time;durP1;ratioP1;P1;durP2;ratioP2;P2;SDS_P1;SDS_P2;PMS_P1;PMS_P2;Temp;Humidity;BMP_temperature;BMP_pressure;BME280_temperature;BME280_humidity;BME280_pressure;Samples;Min_cycle;Max_cycle;Signal;HPM_P1;HPM_P2
2024/02/28 00:01:06;;;;;;;4.90;2.50;;;;;;;-2.72;60.70;100430.97;5028016;28;20037;-49
2024/02/28 00:03:33;;;;;;;6.78;2.83;;;;;;;-2.26;60.84;100503.69;4993190;28;20033;-49
2024/02/28 00:05:59;;;;;;;5.28;2.15;;;;;;;-2.25;60.79;100508.78;5027287;28;20041;-49
2024/02/28 00:08:25;;;;;;;5.03;2.25;;;;;;;-2.25;61.08;100506.25;5027727;28;20065;-49
2024/02/28 00:10:51;;;;;;;6.68;2.67;;;;;;;-2.22;60.96;100503.81;5027439;28;20488;-51
2024/02/28 00:13:17;;;;;;;4.93;1.95;;;;;;;-2.23;61.30;100507.16;5025385;28;20045;-49
2024/02/28 00:15:42;;;;;;;4.97;2.60;;;;;;;-2.21;60.92;100512.31;5025294;28;20044;-52
2024/02/28 00:18:10;;;;;;;8.98;3.05;;;;;;;-2.25;61.15;100513.88;5059197;28;20072;-48
2024/02/28 00:20:36;;;;;;;5.50;2.30;;;;;;;-2.23;61.26;100508.84;5027494;28;20555;-47
2024/02/28 00:23:02;;;;;;;2.50;1.30;;;;;;;-2.23;61.40;100503.75;5025881;28;20135;-48
2024/02/28 00:25:28;;;;;;;6.72;2.40;;;;;;;-2.21;61.26;100515.72;5026466;28;20133;-49
2024/02/28 00:27:54;;;;;;;12.60;2.78;;;;;;;-2.23;61.20;100514.81;5027634;28;20390;-53
2024/02/28 00:30:20;;;;;;;6.43;2.95;;;;;;;-2.25;61.15;100515.59;5009432;28;20423;-52
2024/02/28 00:32:46;;;;;;;3.97;1.50;;;;;;;-2.23;61.49;100516.50;5025794;28;20040;-51
2024/02/28 00:35:13;;;;;;;7.70;2.92;;;;;;;-2.25;61.44;100510.50;5024290;28;20077;-52
2024/02/28 00:37:39;;;;;;;3.63;2.20;;;;;;;-2.31;61.52;100507.78;5025740;28;20037;-54
2024/02/28 00:40:06;;;;;;;7.88;2.78;;;;;;;-2.24;61.18;100523.25;5027189;28;20049;-52
2024/02/28 00:42:32;;;;;;;10.63;2.25;;;;;;;-2.25;61.33;100507.97;5042289;28;20150;-52
2024/02/28 00:44:57;;;;;;;4.03;1.58;;;;;;;-2.27;61.23;100507.03;5024292;28;20499;-50
2024/02/28 00:47:23;;;;;;;6.05;2.50;;;;;;;-2.29;61.50;100501.88;5041428;28;20034;-54
2024/02/28 00:49:49;;;;;;;7.75;3.17;;;;;;;-2.25;61.34;100497.78;5025450;28;20056;-53
2024/02/28 00:52:15;;;;;;;9.43;2.83;;;;;;;-2.26;61.44;100493.50;5008922;28;20041;-53
2024/02/28 00:54:41;;;;;;;5.63;2.78;;;;;;;-2.28;61.33;100495.13;5024351;28;20045;-50
2024/02/28 00:57:07;;;;;;;9.18;3.20;;;;;;;-2.32;61.50;100491.63;5027041;28;20040;-51
2024/02/28 00:59:33;;;;;;;6.75;2.28;;;;;;;-2.31;61.60;100497.59;5026445;28;20141;-51
2024/02/28 01:01:59;;;;;;;6.53;2.63;;;;;;;-2.32;61.55;100494.16;5026873;28;20037;-48
2024/02/28 01:04:25;;;;;;;6.95;2.13;;;;;;;-2.30;61.57;100499.28;5026415;28;20053;-49
2024/02/28 01:06:51;;;;;;;5.88;2.08;;;;;;;-2.34;61.67;100507.66;5057867;28;20877;-49
2024/02/28 01:09:17;;;;;;;5.55;1.33;;;;;;;-2.37;61.86;100502.47;5025222;28;20083;-49
2024/02/28 01:11:43;;;;;;;5.18;1.98;;;;;;;-2.38;61.80;100488.88;5025513;28;20033;-51
2024/02/28 01:14:09;;;;;;;7.10;3.20;;;;;;;-2.40;62.20;100487.97;5026857;28;20580;-53
2024/02/28 01:16:35;;;;;;;8.63;3.17;;;;;;;-2.41;61.90;100483.72;5024187;28;20467;-55
2024/02/28 01:19:01;;;;;;;5.25;2.17;;;;;;;-2.43;62.16;100482.78;5026530;28;20041;-49
2024/02/28 01:21:27;;;;;;;7.28;2.92;;;;;;;-2.45;62.06;100489.50;5024905;28;20080;-52
2024/02/28 01:23:52;;;;;;;7.63;3.03;;;;;;;-2.49;62.33;100476.66;5057469;28;20091;-51
2024/02/28 01:26:21;;;;;;;4.75;2.05;;;;;;;-2.48;62.39;100475.84;5025376;28;20033;-49
2024/02/28 01:28:47;;;;;;;9.85;3.03;;;;;;;-2.60;62.24;100455.94;5024861;28;20041;-54
2024/02/28 01:31:13;;;;;;;9.68;2.50;;;;;;;-2.45;62.54;100486.97;5025684;28;20041;-50
2024/02/28 01:33:39;;;;;;;5.38;2.95;;;;;;;-2.48;62.48;100481.78;5026365;28;20575;-53
2024/02/28 01:36:08;;;;;;;7.03;2.58;;;;;;;-2.48;62.61;100504.69;5057317;28;20572;-51
2024/02/28 01:38:34;;;;;;;7.40;2.95;;;;;;;-2.47;62.60;100498.81;5026471;28;20033;-49
2024/02/28 01:41:00;;;;;;;6.28;2.75;;;;;;;-2.46;62.82;100497.13;5008724;28;20099;-51
2024/02/28 01:43:26;;;;;;;5.63;2.33;;;;;;;-2.45;62.86;100496.28;5025179;28;20041;-53
2024/02/28 01:45:52;;;;;;;7.97;2.65;;;;;;;-2.47;62.98;100483.53;5024888;28;20033;-52
2024/02/28 01:48:18;;;;;;;8.23;2.35;;;;;;;-2.49;62.94;100489.38;5008072;28;20052;-55
2024/02/28 01:50:45;;;;;;;7.35;2.90;;;;;;;-2.47;63.08;100485.19;5008217;28;20053;-50
2024/02/28 01:53:13;;;;;;;6.40;2.97;;;;;;;-2.45;63.19;100479.31;4991798;28;20037;-51
2024/02/28 01:55:39;;;;;;;7.78;3.33;;;;;;;-2.43;63.22;100477.69;5025295;28;20127;-52
2024/02/28 01:58:06;;;;;;;8.40;3.28;;;;;;;-2.42;63.05;100471.78;5023918;28;20047;-49
2024/02/28 02:00:35;;;;;;;13.57;3.50;;;;;;;-2.42;63.25;100476.88;5057319;28;21825;-52
2024/02/28 02:03:01;;;;;;;8.82;3.05;;;;;;;-2.42;63.11;100469.25;5025141;28;20041;-50
2024/02/28 02:05:27;;;;;;;8.93;2.38;;;;;;;-2.46;63.35;100464.03;5026603;28;20041;-51
2024/02/28 02:07:53;;;;;;;7.22;3.00;;;;;;;-2.67;63.54;100448.97;5057204;28;20087;-48
2024/02/28 02:10:19;;;;;;;7.93;3.42;;;;;;;-2.48;63.54;100465.66;4991992;28;20137;-51
2024/02/28 02:12:45;;;;;;;9.02;2.42;;;;;;;-2.47;63.61;100463.16;5040869;28;20124;-53
2024/02/28 02:15:11;;;;;;;7.53;3.13;;;;;;;-2.46;63.74;100464.03;5057558;28;20072;-50
2024/02/28 02:17:37;;;;;;;11.05;3.67;;;;;;;-2.45;63.63;100456.41;5025300;28;20052;-49
2024/02/28 02:20:05;;;;;;;4.72;2.55;;;;;;;-2.44;63.52;100468.34;5024732;28;20207;-51
2024/02/28 02:22:38;;;;;;;6.47;2.90;;;;;;;-2.43;64.01;100464.97;5008085;28;20803;-48
2024/02/28 02:25:05;;;;;;;5.85;2.20;;;;;;;-2.43;64.02;100466.66;5025537;28;20045;-51
2024/02/28 02:27:31;;;;;;;10.05;2.08;;;;;;;-2.43;64.27;100459.88;5022959;28;20496;-48
2024/02/28 02:29:57;;;;;;;10.25;3.30;;;;;;;-2.44;64.17;100452.19;5024181;28;20410;-54
2024/02/28 02:32:23;;;;;;;6.95;1.80;;;;;;;-2.64;64.23;100419.38;5023380;28;20045;-48
2024/02/28 02:34:50;;;;;;;7.47;3.25;;;;;;;-2.40;64.44;100459.09;5026385;28;20080;-54
2024/02/28 02:37:16;;;;;;;8.85;3.47;;;;;;;-2.37;64.58;100469.38;5027012;28;20038;-47
2024/02/28 02:39:42;;;;;;;5.80;2.17;;;;;;;-2.42;64.62;100453.97;5028484;28;20466;-53
2024/02/28 02:42:08;;;;;;;5.55;2.78;;;;;;;-2.37;64.70;100464.28;5021533;28;20049;-52
2024/02/28 02:44:34;;;;;;;9.07;2.72;;;;;;;-2.37;64.85;100469.38;5028762;28;20037;-53
2024/02/28 02:47:01;;;;;;;5.05;2.20;;;;;;;-2.37;64.95;100466.84;5022492;28;20124;-50
2024/02/28 02:49:27;;;;;;;5.80;2.33;;;;;;;-2.57;64.92;100433.16;5025565;28;20406;-50
2024/02/28 02:51:53;;;;;;;5.68;2.65;;;;;;;-2.36;64.98;100464.34;5003005;28;20045;-49
2024/02/28 02:54:19;;;;;;;12.07;3.10;;;;;;;-2.34;64.93;100467.78;5027683;28;20045;-48
2024/02/28 02:56:45;;;;;;;9.45;3.63;;;;;;;-2.34;65.15;100464.38;5026075;28;20131;-51
2024/02/28 02:59:14;;;;;;;6.47;3.10;;;;;;;-2.34;65.10;100449.97;5025926;28;20145;-53
2024/02/28 03:01:40;;;;;;;6.23;2.93;;;;;;;-2.33;65.20;100449.16;5004923;28;20037;-53
2024/02/28 03:04:06;;;;;;;7.20;2.28;;;;;;;-2.33;65.24;100444.06;5028785;28;20122;-50
2024/02/28 03:06:32;;;;;;;7.82;3.08;;;;;;;-2.30;64.97;100456.00;5027363;28;20124;-48
2024/02/28 03:08:58;;;;;;;8.18;3.35;;;;;;;-2.31;65.07;100444.09;5026797;28;20072;-52
2024/02/28 03:11:24;;;;;;;7.15;3.00;;;;;;;-2.34;65.16;100444.88;5022496;28;20515;-53
2024/02/28 03:13:50;;;;;;;9.32;3.45;;;;;;;-2.37;65.31;100439.69;5025018;28;20041;-50
2024/02/28 03:16:16;;;;;;;7.80;3.00;;;;;;;-2.38;65.34;100444.72;5028412;28;20417;-48
2024/02/28 03:18:42;;;;;;;8.50;2.15;;;;;;;-2.61;65.51;100403.31;5009867;28;20045;-52
2024/02/28 03:21:08;;;;;;;10.05;3.42;;;;;;;-2.43;65.48;100444.59;4994400;28;20473;-51
2024/02/28 03:23:36;;;;;;;7.90;2.78;;;;;;;-2.65;65.51;100404.06;5028328;28;20064;-52
2024/02/28 03:26:03;;;;;;;7.80;2.90;;;;;;;-2.63;65.33;100413.47;5016433;28;20052;-52
2024/02/28 03:28:29;;;;;;;5.88;2.33;;;;;;;-2.42;65.73;100448.00;5024422;28;20094;-48
2024/02/28 03:30:55;;;;;;;6.88;2.55;;;;;;;-2.44;65.65;100445.41;5028133;28;20049;-51
2024/02/28 03:33:21;;;;;;;9.68;3.15;;;;;;;-2.63;65.44;100413.47;5059567;28;20082;-50
2024/02/28 03:35:48;;;;;;;8.68;2.63;;;;;;;-2.46;65.58;100434.31;5043391;28;20080;-51
2024/02/28 03:38:14;;;;;;;7.38;3.60;;;;;;;-2.66;65.51;100413.38;5059213;28;20045;-51
2024/02/28 03:40:39;;;;;;;7.43;2.83;;;;;;;-2.49;65.72;100441.88;5026411;28;20567;-48
2024/02/28 03:43:06;;;;;;;7.75;2.50;;;;;;;-2.48;65.79;100440.19;5026882;28;20045;-50
2024/02/28 03:45:37;;;;;;;12.70;3.97;;;;;;;-2.46;65.79;100446.22;5026308;28;20033;-52
2024/02/28 03:48:03;;;;;;;9.15;3.80;;;;;;;-2.46;65.83;100441.13;5014877;28;20034;-53
2024/02/28 03:50:29;;;;;;;8.02;2.88;;;;;;;-2.45;65.72;100442.81;5028241;28;20033;-52
2024/02/28 03:52:55;;;;;;;10.27;3.88;;;;;;;-2.71;65.84;100399.63;5060095;28;20122;-48
2024/02/28 03:55:21;;;;;;;11.15;4.65;;;;;;;-2.50;65.83;100445.22;5027122;28;20087;-50
2024/02/28 03:57:48;;;;;;;11.20;3.97;;;;;;;-2.48;65.76;100445.28;5026573;28;20041;-47
2024/02/28 04:00:14;;;;;;;4.63;2.22;;;;;;;-2.53;66.03;100439.19;4977780;28;20053;-47
2024/02/28 04:02:40;;;;;;;5.82;2.05;;;;;;;-2.45;66.21;100455.53;5026110;28;20053;-47
2024/02/28 04:05:07;;;;;;;7.57;2.47;;;;;;;-2.47;66.00;100454.66;5027483;28;20047;-55
2024/02/28 04:07:33;;;;;;;8.35;3.05;;;;;;;-2.75;66.33;100408.00;5043349;28;20045;-47
2024/02/28 04:09:59;;;;;;;8.35;2.80;;;;;;;-2.48;66.09;100450.38;5008096;28;20064;-50
2024/02/28 04:12:25;;;;;;;6.13;2.63;;;;;;;-2.44;66.22;100452.19;5044129;28;20045;-53
2024/02/28 04:14:51;;;;;;;8.40;3.47;;;;;;;-2.47;66.30;100450.44;5044665;28;20052;-49
2024/02/28 04:17:17;;;;;;;9.88;3.42;;;;;;;-2.57;66.37;100435.69;4974505;28;20119;-52
2024/02/28 04:19:43;;;;;;;5.78;1.77;;;;;;;-2.46;66.52;100459.78;5040587;28;20516;-54
2024/02/28 04:22:09;;;;;;;7.20;2.90;;;;;;;-2.49;66.46;100444.41;5026637;28;20145;-50
2024/02/28 04:24:35;;;;;;;7.07;2.88;;;;;;;-2.46;66.48;100452.13;5026899;28;20099;-54
2024/02/28 04:27:04;;;;;;;4.80;2.25;;;;;;;-2.69;66.37;100408.19;5009400;28;20049;-48
2024/02/28 04:29:30;;;;;;;11.25;3.55;;;;;;;-2.47;66.45;100449.56;5026639;28;20044;-49
2024/02/28 04:31:56;;;;;;;10.75;3.38;;;;;;;-2.85;66.43;100387.31;5027091;28;20045;-49
2024/02/28 04:34:22;;;;;;;8.48;2.78;;;;;;;-2.49;66.46;100446.09;4992696;28;20692;-51
2024/02/28 04:36:48;;;;;;;9.90;3.92;;;;;;;-2.50;66.44;100447.78;5059104;28;20065;-52
2024/02/28 04:39:13;;;;;;;7.60;2.85;;;;;;;-2.44;66.67;100457.28;5026577;28;20434;-51
2024/02/28 04:41:39;;;;;;;7.10;2.50;;;;;;;-2.43;66.49;100447.16;5023108;28;20560;-49
2024/02/28 04:44:05;;;;;;;9.02;3.28;;;;;;;-2.40;66.54;100441.25;5058826;28;20037;-47
2024/02/28 04:46:31;;;;;;;7.75;2.88;;;;;;;-2.59;66.24;100411.88;5027242;28;20111;-49
2024/02/28 04:48:57;;;;;;;11.68;3.72;;;;;;;-2.37;66.15;100446.47;5024955;28;20072;-49
2024/02/28 04:51:22;;;;;;;11.43;3.33;;;;;;;-2.36;66.13;100438.88;5025349;28;20061;-52
2024/02/28 04:53:48;;;;;;;10.93;3.22;;;;;;;-2.50;66.51;100429.09;5025294;28;20720;-52
2024/02/28 04:56:14;;;;;;;6.32;2.83;;;;;;;-2.51;66.35;100420.59;5026733;28;20049;-55
2024/02/28 04:58:40;;;;;;;13.52;3.72;;;;;;;-2.26;66.29;100455.28;5023839;28;20115;-50
2024/02/28 05:01:06;;;;;;;5.95;2.78;;;;;;;-2.42;66.29;100420.88;5026649;28;20056;-47
2024/02/28 05:03:32;;;;;;;10.23;3.38;;;;;;;-2.17;65.84;100461.50;5024075;28;20481;-50
2024/02/28 05:05:58;;;;;;;6.70;3.40;;;;;;;-2.12;65.61;100448.91;5025174;28;20152;-51
2024/02/28 05:08:27;;;;;;;11.73;4.07;;;;;;;-2.09;65.97;100450.69;5023740;28;20532;-52
2024/02/28 05:10:53;;;;;;;8.15;2.83;;;;;;;-2.06;65.83;100445.66;5005016;28;20033;-53
2024/02/28 05:13:19;;;;;;;9.10;3.33;;;;;;;-2.20;65.65;100412.19;5012476;28;20476;-53
2024/02/28 05:15:45;;;;;;;11.27;3.78;;;;;;;-1.94;65.54;100474.03;5024693;28;20051;-49
2024/02/28 05:18:11;;;;;;;6.47;3.53;;;;;;;-1.90;65.53;100458.88;5024312;28;20049;-50
2024/02/28 05:20:37;;;;;;;11.13;3.92;;;;;;;-1.83;65.69;100455.66;5026159;28;20496;-54
2024/02/28 05:23:03;;;;;;;7.88;3.97;;;;;;;-1.75;65.23;100461.84;5056582;28;20045;-53
2024/02/28 05:25:32;;;;;;;12.93;4.40;;;;;;;-1.66;65.16;100458.69;5034545;28;20131;-52
2024/02/28 05:27:58;;;;;;;13.52;4.43;;;;;;;-1.61;64.91;100456.25;5022791;28;20095;-52
2024/02/28 05:30:24;;;;;;;8.88;3.30;;;;;;;-1.53;64.95;100450.53;5008864;28;20594;-53
2024/02/28 05:32:50;;;;;;;9.85;4.22;;;;;;;-1.36;64.56;100444.19;5024827;28;20140;-54
2024/02/28 05:35:16;;;;;;;5.40;1.83;;;;;;;-1.69;63.88;100377.03;5024090;28;20042;-52
2024/02/28 05:37:46;;;;;;;5.97;2.90;;;;;;;-1.19;63.88;100448.84;5026256;28;20045;-53
2024/02/28 05:40:12;;;;;;;4.18;2.67;;;;;;;-1.32;63.79;100424.72;5026105;28;20127;-50
2024/02/28 05:42:39;;;;;;;8.55;3.75;;;;;;;-0.90;63.25;100446.19;5025865;28;20072;-50
2024/02/28 05:45:06;;;;;;;8.00;3.10;;;;;;;-0.64;62.59;100441.69;5025339;28;20041;-50
2024/02/28 05:47:33;;;;;;;7.28;2.97;;;;;;;-0.24;62.15;100432.31;5006911;28;20041;-51
2024/02/28 05:50:00;;;;;;;10.02;3.03;;;;;;;0.06;61.02;100443.16;5001585;28;20413;-51
2024/02/28 05:52:27;;;;;;;6.47;3.25;;;;;;;0.35;60.09;100441.19;5040824;28;20048;-50
2024/02/28 05:54:53;;;;;;;6.15;3.42;;;;;;;0.72;59.45;100455.50;5023475;28;20038;-53
2024/02/28 05:57:18;;;;;;;16.10;4.28;;;;;;;0.86;58.50;100441.25;5025559;28;20273;-52
2024/02/28 05:59:44;;;;;;;10.10;3.63;;;;;;;1.44;57.76;100458.38;5025851;28;20037;-51
2024/02/28 06:02:10;;;;;;;5.60;2.42;;;;;;;1.72;56.28;100462.22;5026198;28;20084;-51
2024/02/28 06:04:36;;;;;;;7.70;2.75;;;;;;;1.82;55.73;100458.06;5025193;28;20723;-53
2024/02/28 06:07:02;;;;;;;7.90;3.50;;;;;;;1.98;55.41;100460.84;5024373;28;20044;-51
2024/02/28 06:09:29;;;;;;;7.13;3.80;;;;;;;2.27;54.62;100457.75;5007928;28;20037;-47
2024/02/28 06:11:55;;;;;;;8.05;3.17;;;;;;;2.45;53.84;100427.19;5026342;28;20041;-48
2024/02/28 06:14:20;;;;;;;6.80;3.33;;;;;;;3.00;52.61;100461.91;5023893;28;20056;-52
2024/02/28 06:16:47;;;;;;;7.65;3.25;;;;;;;3.22;52.61;100462.97;5023669;28;20041;-56
2024/02/28 06:19:13;;;;;;;6.03;3.05;;;;;;;3.38;51.31;100473.38;5056970;28;20153;-51
2024/02/28 06:21:39;;;;;;;9.32;3.30;;;;;;;3.30;51.52;100472.44;5025404;28;20153;-53
2024/02/28 06:24:05;;;;;;;8.18;3.47;;;;;;;3.72;50.16;100477.00;5024295;28;20060;-53
2024/02/28 06:26:31;;;;;;;9.40;4.43;;;;;;;3.93;50.09;100460.81;5024680;28;20065;-51
2024/02/28 06:29:06;;;;;;;10.98;3.60;;;;;;;4.25;49.35;100456.69;5024153;28;20047;-50
2024/02/28 06:31:32;;;;;;;7.80;2.83;;;;;;;4.86;47.48;100468.88;5025800;28;20037;-51
2024/02/28 06:33:58;;;;;;;6.88;2.65;;;;;;;4.79;47.63;100444.81;5057152;28;20630;-53
2024/02/28 06:36:24;;;;;;;8.40;3.60;;;;;;;4.71;46.84;100425.06;5023921;28;20037;-50
2024/02/28 06:38:50;;;;;;;5.18;2.75;;;;;;;5.11;46.79;100458.56;5025494;28;20048;-53
2024/02/28 06:41:16;;;;;;;9.57;3.88;;;;;;;5.38;46.27;100449.97;5024077;28;20043;-51
2024/02/28 06:43:42;;;;;;;7.70;3.15;;;;;;;5.62;45.80;100446.47;5011199;28;20397;-56
2024/02/28 06:46:09;;;;;;;4.18;2.35;;;;;;;5.53;45.46;100457.69;5039869;28;20791;-54
2024/02/28 06:48:35;;;;;;;6.93;3.55;;;;;;;5.67;44.72;100410.34;5023746;28;20890;-54
2024/02/28 06:51:01;;;;;;;8.23;3.67;;;;;;;6.53;44.09;100451.31;5024994;28;20425;-52
2024/02/28 06:53:28;;;;;;;11.55;3.80;;;;;;;6.56;43.19;100453.88;5025572;28;20045;-48
2024/02/28 06:55:53;;;;;;;9.57;3.80;;;;;;;7.33;43.15;100447.25;5023838;28;20046;-51
2024/02/28 06:58:19;;;;;;;11.40;4.05;;;;;;;7.61;41.95;100428.03;5006963;28;20583;-50
2024/02/28 07:00:48;;;;;;;10.68;3.92;;;;;;;7.87;41.28;100445.00;5024240;28;20072;-51
2024/02/28 07:03:14;;;;;;;13.57;4.30;;;;;;;8.22;41.18;100454.94;5024230;28;20124;-51
2024/02/28 07:05:40;;;;;;;8.02;3.92;;;;;;;8.45;39.99;100442.59;5023390;28;20140;-53
2024/02/28 07:08:06;;;;;;;10.57;4.05;;;;;;;9.21;39.43;100446.63;5023563;28;20488;-50
2024/02/28 07:10:32;;;;;;;9.23;4.05;;;;;;;9.83;38.59;100449.84;5025016;28;20072;-53
2024/02/28 07:12:58;;;;;;;11.32;4.88;;;;;;;9.89;37.50;100447.97;5025276;28;20779;-54
2024/02/28 07:15:24;;;;;;;9.02;4.07;;;;;;;9.31;37.61;100398.88;5023329;28;20085;-52
2024/02/28 07:17:50;;;;;;;12.82;5.10;;;;;;;9.97;37.46;100443.50;5024722;28;20047;-50
2024/02/28 07:20:16;;;;;;;10.48;4.35;;;;;;;10.50;36.65;100442.41;5025348;28;20045;-48
2024/02/28 07:22:43;;;;;;;9.20;4.10;;;;;;;10.64;35.71;100457.69;5027850;28;20199;-49
2024/02/28 07:25:09;;;;;;;7.47;3.47;;;;;;;9.87;36.11;100452.34;5028084;28;20041;-54
2024/02/28 07:27:35;;;;;;;10.25;3.65;;;;;;;9.96;36.63;100462.56;5028175;28;20426;-52
2024/02/28 07:30:03;;;;;;;11.43;4.20;;;;;;;10.29;36.08;100442.00;5028404;28;20037;-51
2024/02/28 07:32:34;;;;;;;9.82;4.72;;;;;;;10.22;35.75;100435.22;5027168;28;20045;-54
2024/02/28 07:35:02;;;;;;;12.52;4.55;;;;;;;10.37;36.33;100458.28;5026415;28;20048;-51
2024/02/28 07:37:30;;;;;;;;;;;;;;;10.85;35.33;100459.81;5058839;28;20049;-52
2024/02/28 07:39:56;;;;;;;10.30;4.30;;;;;;;11.57;34.64;100465.84;5027967;28;19924;-52
2024/02/28 07:42:22;;;;;;;9.63;4.80;;;;;;;11.26;34.39;100458.81;5006644;28;20037;-51
2024/02/28 07:44:53;;;;;;;8.38;3.03;;;;;;;10.96;34.58;100456.97;5009061;28;20046;-51
2024/02/28 07:47:19;;;;;;;12.32;4.43;;;;;;;10.67;35.34;100449.84;5010126;28;20838;-53
2024/02/28 07:49:45;;;;;;;9.90;4.65;;;;;;;10.78;34.89;100442.63;5027491;28;20068;-53
2024/02/28 07:52:11;;;;;;;8.73;3.67;;;;;;;10.74;34.75;100406.31;5026766;28;20041;-53
2024/02/28 07:54:37;;;;;;;9.27;4.60;;;;;;;10.96;35.03;100417.94;5026935;28;20528;-52
2024/02/28 07:57:04;;;;;;;8.60;4.65;;;;;;;11.32;34.43;100440.44;5010180;28;20822;-56
2024/02/28 07:59:30;;;;;;;7.35;3.47;;;;;;;11.57;33.96;100437.19;5028207;28;20049;-53
2024/02/28 08:01:56;;;;;;;11.00;4.50;;;;;;;11.63;34.47;100440.50;5028280;28;20060;-53
2024/02/28 08:04:22;;;;;;;9.20;4.60;;;;;;;11.29;33.99;100430.13;5026820;28;20052;-56
2024/02/28 08:06:48;;;;;;;13.30;4.85;;;;;;;11.68;34.03;100437.78;5027870;28;20038;-55
2024/02/28 08:09:15;;;;;;;15.57;5.70;;;;;;;12.69;33.18;100426.16;5026489;28;20122;-50
2024/02/28 08:11:41;;;;;;;12.32;5.07;;;;;;;13.17;32.22;100434.22;5027805;28;20513;-52
2024/02/28 08:14:07;;;;;;;8.82;4.88;;;;;;;12.94;32.34;100428.84;5027975;28;20079;-51
2024/02/28 08:16:33;;;;;;;9.55;4.72;;;;;;;12.64;32.64;100426.31;5025779;28;20095;-54
2024/02/28 08:18:59;;;;;;;9.52;4.43;;;;;;;12.63;32.71;100429.81;5027103;28;20068;-54
2024/02/28 08:21:26;;;;;;;13.77;5.60;;;;;;;12.70;32.84;100426.13;5026940;28;20071;-50
2024/02/28 08:23:52;;;;;;;11.52;4.78;;;;;;;13.02;32.34;100419.91;5027176;28;20045;-54
2024/02/28 08:26:18;;;;;;;10.10;4.55;;;;;;;12.99;32.17;100416.50;5058724;28;20045;-52
2024/02/28 08:28:44;;;;;;;9.95;4.63;;;;;;;13.71;31.30;100389.66;5027410;28;20045;-54
2024/02/28 08:31:12;;;;;;;10.13;4.87;;;;;;;14.14;31.15;100414.25;5042053;28;20069;-52
2024/02/28 08:33:38;;;;;;;10.52;4.20;;;;;;;13.99;30.72;100416.53;5025833;28;20490;-50
2024/02/28 08:36:04;;;;;;;16.17;5.68;;;;;;;13.43;31.36;100412.47;5026746;28;20148;-51
2024/02/28 08:38:30;;;;;;;10.10;4.28;;;;;;;13.42;30.90;100388.09;4993514;28;20045;-54
2024/02/28 08:40:56;;;;;;;7.82;4.72;;;;;;;13.43;31.21;100410.72;5027186;28;20416;-53
2024/02/28 08:43:22;;;;;;;12.10;4.90;;;;;;;12.79;31.75;100385.84;5012069;28;20045;-52
2024/02/28 08:45:50;;;;;;;17.08;4.82;;;;;;;12.86;31.94;100397.81;5011788;28;20044;-53
2024/02/28 08:48:16;;;;;;;13.63;4.63;;;;;;;12.65;31.97;100377.59;5009808;28;20761;-48
2024/02/28 08:50:44;;;;;;;8.35;4.13;;;;;;;13.30;31.58;100413.75;5041001;28;20097;-52
2024/02/28 08:53:10;;;;;;;10.25;4.53;;;;;;;13.06;31.70;100386.69;5041808;28;20041;-54
2024/02/28 08:55:36;;;;;;;10.43;5.13;;;;;;;13.33;31.49;100367.53;5026295;28;20064;-56
2024/02/28 08:58:02;;;;;;;10.30;5.20;;;;;;;14.00;30.82;100402.56;4992582;28;20045;-50
2024/02/28 09:00:28;;;;;;;15.57;5.72;;;;;;;14.51;30.81;100398.03;5025785;28;20045;-57
2024/02/28 09:02:54;;;;;;;10.60;4.93;;;;;;;14.87;29.51;100390.47;5025665;28;20049;-53
2024/02/28 09:05:20;;;;;;;11.52;5.25;;;;;;;14.63;29.83;100387.09;5025626;28;20041;-49
2024/02/28 09:07:51;;;;;;;12.80;5.50;;;;;;;15.32;29.65;100390.34;5026366;28;20550;-54
2024/02/28 09:10:23;;;;;;;11.13;4.45;;;;;;;15.94;28.60;100366.66;5026323;28;20045;-51
2024/02/28 09:12:50;;;;;;;10.38;5.10;;;;;;;15.24;28.74;100357.47;5025158;28;20037;-54
2024/02/28 09:15:15;;;;;;;10.70;4.82;;;;;;;16.16;28.47;100359.50;5026553;28;20037;-54
2024/02/28 09:17:42;;;;;;;9.77;4.65;;;;;;;17.11;28.03;100393.44;5026037;28;20515;-54
2024/02/28 09:20:08;;;;;;;11.45;5.40;;;;;;;17.58;27.30;100384.91;5026516;28;20045;-53
2024/02/28 09:22:35;;;;;;;8.50;4.80;;;;;;;18.78;26.13;100386.28;5024616;28;20056;-54
2024/02/28 09:25:03;;;;;;;13.20;4.78;;;;;;;17.99;26.51;100388.88;5041778;28;20052;-54
2024/02/28 09:27:30;;;;;;;9.45;5.32;;;;;;;18.72;26.12;100374.31;4992502;28;20421;-55
2024/02/28 09:29:57;;;;;;;11.05;4.65;;;;;;;18.98;25.36;100386.84;5024609;28;20041;-56
2024/02/28 09:32:23;;;;;;;13.98;4.80;;;;;;;17.90;25.84;100385.88;5026779;28;20512;-54
2024/02/28 09:34:49;;;;;;;12.02;6.20;;;;;;;17.84;25.98;100387.06;5055374;28;20545;-54
2024/02/28 09:37:16;;;;;;;10.57;6.05;;;;;;;17.35;26.36;100358.03;4992030;28;20132;-53
2024/02/28 09:39:43;;;;;;;10.57;5.30;;;;;;;17.38;26.00;100357.00;5008696;28;20425;-54
2024/02/28 09:42:13;;;;;;;11.50;5.13;;;;;;;16.93;26.43;100386.44;5023252;28;20047;-57
2024/02/28 09:44:40;;;;;;;11.88;5.20;;;;;;;16.94;26.62;100382.91;5004576;28;20073;-57
2024/02/28 09:47:06;;;;;;;10.00;5.07;;;;;;;16.23;27.01;100354.81;5004109;28;20047;-56
2024/02/28 09:49:34;;;;;;;10.80;5.22;;;;;;;15.90;27.72;100344.13;5057542;28;20049;-55
2024/02/28 09:52:01;;;;;;;10.45;4.55;;;;;;;17.31;26.45;100374.03;5025374;28;20037;-55
2024/02/28 09:54:27;;;;;;;9.23;4.95;;;;;;;17.11;26.81;100380.31;5024572;28;20176;-54
2024/02/28 09:56:53;;;;;;;11.18;5.05;;;;;;;16.94;26.72;100388.16;5026240;28;20041;-55
2024/02/28 09:59:20;;;;;;;10.75;5.20;;;;;;;17.39;26.42;100385.00;5057483;28;20041;-58
2024/02/28 10:01:53;;;;;;;14.55;4.68;;;;;;;17.30;26.06;100388.94;5057531;28;20045;-55
2024/02/28 10:04:19;;;;;;;8.20;4.38;;;;;;;16.49;26.83;100365.78;5008211;28;20509;-58
2024/02/28 10:06:48;;;;;;;12.30;5.53;;;;;;;16.26;27.02;100386.16;5026253;28;20033;-56
2024/02/28 10:09:15;;;;;;;10.00;4.70;;;;;;;16.36;27.21;100369.06;4988084;28;20092;-54
2024/02/28 10:11:43;;;;;;;10.05;4.32;;;;;;;17.26;26.58;100397.94;4988770;28;20050;-56
2024/02/28 10:14:09;;;;;;;9.32;4.68;;;;;;;17.15;26.22;100387.09;5007253;28;20223;-58
2024/02/28 10:16:35;;;;;;;10.05;4.55;;;;;;;17.10;26.42;100388.25;4992081;28;20045;-56
2024/02/28 10:19:02;;;;;;;11.75;4.70;;;;;;;18.05;25.71;100388.53;5025410;28;20048;-56
2024/02/28 10:21:32;;;;;;;12.88;5.03;;;;;;;18.60;25.01;100383.75;5007944;28;20048;-55
2024/02/28 10:23:59;;;;;;;9.75;4.45;;;;;;;18.78;24.83;100389.78;5023404;28;20041;-57
2024/02/28 10:26:24;;;;;;;11.90;5.25;;;;;;;19.85;23.78;100379.88;5024268;28;20056;-58
2024/02/28 10:28:52;;;;;;;10.77;4.93;;;;;;;18.98;24.34;100386.84;5025143;28;20045;-56
2024/02/28 10:31:21;;;;;;;16.38;5.47;;;;;;;18.16;24.89;100383.53;5025246;28;20048;-56
2024/02/28 10:33:46;;;;;;;8.27;4.78;;;;;;;18.17;24.76;100379.13;5056909;28;20042;-54
2024/02/28 10:36:13;;;;;;;9.27;5.22;;;;;;;17.53;25.13;100352.75;5040750;28;20050;-53
2024/02/28 10:38:39;;;;;;;11.85;5.40;;;;;;;18.61;24.74;100369.66;5040218;28;20048;-53
2024/02/28 10:41:05;;;;;;;9.25;4.80;;;;;;;19.03;24.12;100341.75;5023967;28;20068;-55
2024/02/28 10:43:34;;;;;;;8.02;3.70;;;;;;;19.35;23.84;100359.16;5011425;28;20060;-55
2024/02/28 10:46:00;;;;;;;;;;;;;;;19.03;24.15;100368.97;5012440;28;20060;-56
2024/02/28 10:48:27;;;;;;;11.30;5.15;;;;;;;19.57;23.54;100365.81;5023525;28;19917;-55
2024/02/28 10:50:56;;;;;;;9.13;4.88;;;;;;;18.73;23.74;100340.91;5007094;28;20053;-53
2024/02/28 10:53:32;;;;;;;9.82;5.35;;;;;;;18.20;24.51;100360.53;5023064;28;20041;-56
2024/02/28 10:56:03;;;;;;;10.15;4.88;;;;;;;18.68;24.08;100364.88;5008782;28;20047;-57
2024/02/28 10:58:39;;;;;;;9.68;5.15;;;;;;;18.70;24.48;100360.38;5026969;28;20048;-56
2024/02/28 11:01:05;;;;;;;12.70;4.95;;;;;;;18.75;23.98;100360.09;5059337;28;20045;-55
2024/02/28 11:03:31;;;;;;;8.68;5.40;;;;;;;18.20;24.55;100352.66;5060556;28;20052;-58
2024/02/28 11:05:57;;;;;;;10.88;5.30;;;;;;;17.79;24.96;100336.47;5027192;28;20140;-53
2024/02/28 11:08:25;;;;;;;12.35;4.95;;;;;;;17.66;25.11;100328.38;5026946;28;20040;-55
2024/02/28 11:10:59;;;;;;;8.95;5.18;;;;;;;18.58;24.52;100346.09;5060158;28;20041;-55
2024/02/28 11:13:26;;;;;;;9.75;5.72;;;;;;;18.30;24.90;100302.97;5008094;28;20128;-55
2024/02/28 11:15:55;;;;;;;12.43;5.38;;;;;;;19.31;24.27;100341.81;5009405;28;20038;-56
2024/02/28 11:18:21;;;;;;;14.25;5.40;;;;;;;19.51;23.97;100316.06;5008153;28;20453;-56
2024/02/28 11:20:48;;;;;;;11.15;4.63;;;;;;;19.10;23.79;100343.13;5044263;28;20048;-57